createdAt,value
2023-05-05T00:04:09.950Z,9.22
2023-05-05T00:14:31.447Z,9.29
2023-05-05T00:24:53.148Z,9.40
2023-05-05T00:35:17.939Z,9.50
2023-05-05T00:45:42.804Z,9.56
2023-05-05T00:56:04.635Z,9.65
2023-05-05T01:06:50.884Z,9.59
2023-05-05T01:17:27.477Z,9.57
2023-05-05T01:28:06.379Z,9.48
2023-05-05T01:38:34.855Z,9.32
2023-05-05T01:48:57.694Z,9.21
2023-05-05T01:59:20.409Z,9.19
2023-05-05T02:09:43.583Z,8.97
2023-05-05T02:20:08.267Z,8.82
2023-05-05T02:30:33.334Z,8.62
2023-05-05T02:40:56.578Z,8.65
2023-05-05T02:51:18.269Z,8.80
2023-05-05T03:01:57.316Z,8.79
2023-05-05T03:12:24.548Z,8.84
2023-05-05T03:22:55.212Z,8.81
2023-05-05T03:33:17.249Z,8.92
2023-05-05T03:43:41.347Z,8.87
2023-05-05T03:54:03.650Z,8.77
2023-05-05T04:04:25.896Z,8.27
2023-05-05T04:14:48.778Z,7.71
2023-05-05T04:25:11.132Z,7.78
2023-05-05T04:35:33.273Z,7.88
2023-05-05T04:45:56.112Z,7.93
2023-05-05T04:56:22.037Z,8.15
2023-05-05T05:06:43.941Z,8.38
2023-05-05T05:17:06.633Z,8.61
2023-05-05T05:27:28.706Z,8.84
2023-05-05T05:37:51.814Z,9.72
2023-05-05T05:48:13.897Z,10.12
2023-05-05T05:58:35.622Z,9.93
2023-05-05T06:08:57.593Z,10.46
2023-05-05T06:19:19.648Z,11.59
2023-05-05T06:29:41.684Z,11.71
2023-05-05T06:40:03.730Z,11.41
2023-05-05T06:50:25.098Z,12.42
2023-05-05T07:00:46.649Z,13.09
2023-05-05T07:11:08.245Z,12.60
2023-05-05T07:21:29.956Z,12.48
2023-05-05T07:31:52.163Z,12.75
2023-05-05T07:42:13.883Z,12.22
2023-05-05T07:52:46.567Z,12.26
2023-05-05T08:03:12.146Z,12.65
2023-05-05T08:13:34.826Z,12.81
2023-05-05T08:23:56.699Z,14.13
2023-05-05T08:34:18.596Z,15.03
2023-05-05T08:44:39.844Z,14.76
2023-05-05T08:55:29.155Z,14.53
2023-05-05T09:05:51.598Z,15.27
2023-05-05T09:16:13.265Z,15.57
2023-05-05T09:26:36.595Z,15.23
2023-05-05T09:36:57.868Z,15.47
2023-05-05T09:47:29.634Z,15.31
2023-05-05T09:57:51.519Z,15.50
2023-05-05T10:08:13.795Z,15.60
2023-05-05T10:18:36.101Z,15.36
2023-05-05T10:29:04.009Z,16.12
2023-05-05T10:39:26.401Z,16.41
2023-05-05T10:49:50.937Z,16.27
2023-05-05T11:00:39.007Z,15.77
2023-05-05T11:11:00.862Z,15.55
2023-05-05T11:21:23.016Z,16.12
2023-05-05T11:31:47.816Z,16.66
2023-05-05T11:42:23.713Z,18.02
2023-05-05T11:52:45.615Z,18.07
2023-05-05T12:03:07.223Z,17.37
2023-05-05T12:13:29.959Z,16.87
2023-05-05T12:23:51.587Z,20.10
2023-05-05T12:34:13.528Z,18.97
2023-05-05T12:44:36.379Z,18.13
2023-05-05T12:54:59.491Z,17.87
2023-05-05T13:05:36.245Z,18.87
2023-05-05T13:15:58.231Z,21.21
2023-05-05T13:26:20.184Z,19.80
2023-05-05T13:36:41.859Z,21.40
2023-05-05T13:47:03.823Z,21.55
2023-05-05T13:57:25.452Z,17.11
2023-05-05T14:07:47.442Z,21.03
2023-05-05T14:18:09.116Z,19.29
2023-05-05T14:28:31.069Z,22.90
2023-05-05T14:38:52.873Z,26.74
2023-05-05T14:49:14.324Z,23.28
2023-05-05T14:59:35.934Z,20.22
2023-05-05T15:09:57.643Z,16.86
2023-05-05T15:20:18.948Z,16.75
2023-05-05T15:30:40.959Z,16.33
2023-05-05T15:41:02.760Z,15.91
2023-05-05T15:51:24.098Z,15.72
2023-05-05T16:01:45.858Z,15.60
2023-05-05T16:12:07.568Z,15.48
2023-05-05T16:22:29.103Z,15.20
2023-05-05T16:32:51.835Z,14.79
2023-05-05T16:43:13.753Z,14.59
2023-05-05T16:53:35.282Z,14.26
2023-05-05T17:04:01.917Z,13.87
2023-05-05T17:14:24.510Z,13.62
2023-05-05T17:24:45.881Z,13.26
2023-05-05T17:35:08.302Z,12.95
2023-05-05T17:45:30.717Z,12.83
2023-05-05T17:55:52.213Z,12.51
2023-05-05T18:06:13.881Z,12.20
2023-05-05T18:16:36.117Z,11.88
2023-05-05T18:26:58.716Z,11.83
2023-05-05T18:37:20.434Z,11.50
2023-05-05T18:47:42.431Z,11.53
2023-05-05T18:59:42.132Z,11.62
2023-05-05T19:10:07.489Z,11.32
2023-05-05T19:20:31.699Z,11.37
2023-05-05T19:30:53.037Z,11.22
2023-05-05T19:41:14.892Z,10.98
2023-05-05T19:51:36.904Z,10.79
2023-05-05T20:01:58.536Z,10.99
2023-05-05T20:12:21.955Z,10.84
2023-05-05T20:22:44.444Z,10.53
2023-05-05T20:33:06.171Z,10.35
2023-05-05T20:43:27.614Z,10.23
2023-05-05T20:53:49.133Z,10.13
2023-05-05T21:04:10.851Z,9.95
2023-05-05T21:14:32.167Z,9.66
2023-05-05T21:24:54.253Z,9.25
2023-05-05T21:35:16.009Z,8.94
2023-05-05T21:45:37.822Z,8.63
2023-05-05T21:55:59.681Z,8.37
2023-05-05T22:06:21.428Z,8.15
2023-05-05T22:16:43.621Z,8.05
2023-05-05T22:27:05.325Z,7.77
2023-05-05T22:37:26.957Z,7.61
2023-05-05T22:47:49.101Z,7.48
2023-05-05T22:58:11.521Z,7.35
2023-05-05T23:08:33.055Z,7.18
2023-05-05T23:18:54.716Z,7.03
2023-05-05T23:29:16.219Z,6.90
2023-05-05T23:39:37.707Z,6.83
2023-05-05T23:49:59.403Z,6.75
